X  Fechar Metar - Info de Aeroporto        LGTS Thessaloniki Macedonia International
Temperatura
57°F Temperatura
57°F Ptº Orvalho
100% Humidade



Vento
3 MPH
6 KM/H
1 M/S
3 NÓS



-1°
VRB
Condições Atuais

Mostly Cloudy Muito Nublado
Pressão 1006 (hPa) - 29.7 (inHg)
Visibilidade 5 (milha) - 8 (km)
Aeroporto
Código-Aeropoto LGTS

Localização: Thessaloniki Macedonia International
Distância: 85 (mi)

Metar:
METAR LGTS 232120Z VRB03KT 8000 SCT006 BKN025 14/14 Q1006 NOSIG

Hora: 24-04-2024 00:20 EEST